Time;durP1;ratioP1;P1;durP2;ratioP2;P2;SDS_P1;SDS_P2;PMS_P1;PMS_P2;Temp;Humidity;BMP_temperature;BMP_pressure;BME280_temperature;BME280_humidity;BME280_pressure;Samples;Min_cycle;Max_cycle;Signal;HPM_P1;HPM_P2
2022/05/16 00:01:59;;;;;;;5.10;2.08;;;7.00;99.90;;;;;;4900449;29;20035;-81
2022/05/16 00:04:25;;;;;;;3.85;3.00;;;7.00;99.90;;;;;;4899798;29;20032;-94
2022/05/16 00:06:51;;;;;;;7.55;4.25;;;7.00;99.90;;;;;;4882956;29;20386;-81
2022/05/16 00:09:16;;;;;;;5.38;2.65;;;7.00;99.90;;;;;;4900009;29;20048;-81
2022/05/16 00:11:42;;;;;;;1.85;1.75;;;6.90;99.90;;;;;;4899639;29;20035;-80
2022/05/16 00:14:08;;;;;;;3.47;1.90;;;6.90;99.90;;;;;;4882978;29;20056;-81
2022/05/16 00:16:34;;;;;;;5.55;2.30;;;6.90;99.90;;;;;;4880955;29;20120;-91
2022/05/16 00:19:00;;;;;;;5.22;2.85;;;6.90;99.90;;;;;;4864417;29;20425;-87
2022/05/16 00:21:25;;;;;;;2.78;2.05;;;6.80;99.90;;;;;;4864273;29;20033;-94
2022/05/16 00:23:51;;;;;;;2.83;2.17;;;6.80;99.90;;;;;;4864588;29;20036;-82
2022/05/16 00:26:18;;;;;;;3.50;2.92;;;6.80;99.90;;;;;;4880899;29;20495;-86
2022/05/16 00:28:43;;;;;;;3.75;2.40;;;6.80;99.90;;;;;;4875484;29;20056;-94
2022/05/16 00:31:09;;;;;;;5.55;3.00;;;6.70;99.90;;;;;;4879978;29;20021;-86
2022/05/16 00:33:34;;;;;;;5.70;2.53;;;6.70;99.90;;;;;;4890619;29;20021;-80
2022/05/16 00:36:00;;;;;;;3.10;2.20;;;6.60;99.90;;;;;;4899366;29;20040;-94
2022/05/16 00:38:26;;;;;;;4.50;2.20;;;6.60;99.90;;;;;;4898550;29;20068;-93
2022/05/16 00:40:53;;;;;;;3.50;2.30;;;6.60;99.90;;;;;;4898399;29;20420;-92
2022/05/16 00:43:52;;;;;;;3.90;2.70;;;6.50;99.90;;;;;;4897834;29;20052;-81
2022/05/16 00:46:19;;;;;;;2.63;2.00;;;6.60;99.90;;;;;;4898963;29;20020;-93
2022/05/16 00:48:45;;;;;;;2.08;1.95;;;6.60;99.90;;;;;;4898231;29;20024;-81
2022/05/16 00:51:17;;;;;;;4.63;2.92;;;6.60;99.90;;;;;;4899529;29;20025;-88
2022/05/16 00:53:43;;;;;;;2.70;1.97;;;6.50;99.90;;;;;;4897759;29;20021;-80
2022/05/16 00:56:09;;;;;;;4.38;2.22;;;6.50;99.90;;;;;;4898677;29;20092;-87
2022/05/16 00:58:37;;;;;;;2.67;1.95;;;6.50;99.90;;;;;;4897745;29;20069;-90
2022/05/16 01:01:03;;;;;;;4.43;2.58;;;6.40;99.90;;;;;;4897604;29;20043;-94
2022/05/16 01:06:13;;;;;;;5.47;3.58;;;6.30;99.90;;;;;;4898733;29;20403;-86
2022/05/16 01:08:43;;;;;;;5.70;3.78;;;6.20;99.90;;;;;;4898642;29;20025;-95
2022/05/16 01:11:12;;;;;;;6.72;3.85;;;6.20;99.90;;;;;;4897568;29;20035;-80
2022/05/16 01:13:39;;;;;;;5.72;3.53;;;6.10;99.90;;;;;;4897856;29;20592;-94
2022/05/16 01:16:05;;;;;;;5.35;3.13;;;6.10;99.90;;;;;;4897780;29;20028;-94
2022/05/16 01:18:31;;;;;;;6.15;3.28;;;6.00;99.90;;;;;;4897607;29;20032;-92
2022/05/16 01:21:28;;;;;;;8.00;3.53;;;5.90;99.90;;;;;;4897151;29;20057;-80
2022/05/16 01:24:10;;;;;;;5.20;3.60;;;5.90;99.90;;;;;;4899136;29;20080;-80
2022/05/16 01:26:37;;;;;;;6.68;4.40;;;5.80;99.90;;;;;;4898713;29;20032;-94
2022/05/16 01:29:04;;;;;;;5.32;3.80;;;5.80;99.90;;;;;;4897337;29;20469;-94
2022/05/16 01:31:30;;;;;;;7.38;4.20;;;5.70;99.90;;;;;;4897530;29;20060;-87
2022/05/16 01:33:56;;;;;;;9.38;4.13;;;5.70;99.90;;;;;;4882766;29;20029;-93
2022/05/16 01:36:21;;;;;;;9.13;4.95;;;5.70;99.90;;;;;;4878511;29;20081;-95
2022/05/16 01:38:51;;;;;;;5.20;4.57;;;5.70;99.90;;;;;;4878635;29;20429;-81
2022/05/16 01:41:20;;;;;;;6.05;4.03;;;5.70;99.90;;;;;;4879698;29;20063;-80
2022/05/16 01:43:48;;;;;;;8.70;3.67;;;5.80;99.90;;;;;;4879542;29;20104;-94
2022/05/16 01:46:19;;;;;;;5.15;3.67;;;5.80;99.90;;;;;;4878521;29;20033;-95
2022/05/16 01:48:45;;;;;;;6.72;3.22;;;5.80;99.90;;;;;;4878547;29;20017;-81
2022/05/16 01:51:11;;;;;;;3.22;2.60;;;5.70;99.90;;;;;;4879312;29;20403;-80
2022/05/16 01:53:39;;;;;;;4.40;2.28;;;5.80;99.90;;;;;;4879435;29;20476;-81
2022/05/16 01:56:05;;;;;;;3.55;2.30;;;5.80;99.90;;;;;;4879473;29;20040;-81
2022/05/16 01:58:30;;;;;;;3.95;2.40;;;5.80;99.90;;;;;;4879525;29;20037;-81
2022/05/16 02:00:56;;;;;;;2.65;2.05;;;5.80;99.90;;;;;;4879124;29;20041;-95
2022/05/16 02:03:22;;;;;;;3.75;1.92;;;5.80;99.90;;;;;;4878479;29;20025;-94
2022/05/16 02:05:48;;;;;;;3.40;2.35;;;5.70;99.90;;;;;;4878501;29;20119;-92
2022/05/16 02:08:15;;;;;;;3.33;2.67;;;5.60;99.90;;;;;;4879559;29;20032;-82
2022/05/16 02:10:42;;;;;;;6.60;3.05;;;5.60;99.90;;;;;;4878236;29;20479;-94
2022/05/16 02:13:08;;;;;;;2.65;2.35;;;5.60;99.90;;;;;;4887969;29;20146;-80
2022/05/16 02:15:36;;;;;;;2.63;2.30;;;5.50;99.90;;;;;;4896776;29;20371;-94
2022/05/16 02:18:03;;;;;;;6.70;2.70;;;5.50;99.90;;;;;;4896973;29;20028;-81
2022/05/16 02:20:29;;;;;;;4.63;2.30;;;5.50;99.90;;;;;;4897927;29;20045;-80
2022/05/16 02:25:49;;;;;;;4.10;2.97;;;5.40;99.90;;;;;;4897872;29;20043;-92
2022/05/16 02:28:17;;;;;;;5.25;2.92;;;5.30;99.90;;;;;;4896704;29;20068;-89
2022/05/16 02:30:45;;;;;;;4.68;2.97;;;5.30;99.90;;;;;;4897083;29;20036;-80
2022/05/16 02:33:12;;;;;;;3.10;2.90;;;5.20;99.90;;;;;;4898035;29;20032;-81
2022/05/16 02:35:38;;;;;;;4.03;2.38;;;5.10;99.90;;;;;;4897745;29;20059;-94
2022/05/16 02:38:06;;;;;;;3.30;2.60;;;5.10;99.90;;;;;;4897370;29;20478;-93
2022/05/16 02:40:34;;;;;;;5.03;2.90;;;5.10;99.90;;;;;;4896786;29;20119;-81
2022/05/16 02:42:59;;;;;;;4.90;2.53;;;5.00;99.90;;;;;;4897479;29;20080;-93
2022/05/16 02:45:26;;;;;;;4.28;3.05;;;5.00;99.90;;;;;;4896697;29;20033;-81
2022/05/16 02:47:52;;;;;;;3.58;2.80;;;5.00;99.90;;;;;;4897748;29;20031;-80
2022/05/16 02:50:20;;;;;;;4.40;3.25;;;5.00;99.90;;;;;;4896858;29;20398;-94
2022/05/16 02:52:45;;;;;;;4.82;3.35;;;5.00;99.90;;;;;;4896613;29;20021;-80
2022/05/16 02:55:11;;;;;;;3.85;3.03;;;5.00;99.90;;;;;;4897672;29;20096;-80
2022/05/16 02:57:37;;;;;;;4.90;3.00;;;5.00;99.90;;;;;;4900331;29;20028;-81
2022/05/16 03:00:08;;;;;;;8.90;3.58;;;5.00;99.90;;;;;;4900951;29;20044;-80
2022/05/16 03:02:35;;;;;;;4.25;2.72;;;5.00;99.90;;;;;;4900134;29;20074;-94
2022/05/16 03:05:00;;;;;;;3.17;2.78;;;5.10;99.90;;;;;;4900103;29;20390;-80
2022/05/16 03:07:26;;;;;;;5.28;3.22;;;5.10;99.90;;;;;;4901264;29;20029;-88
2022/05/16 03:09:51;;;;;;;2.80;2.60;;;5.10;99.90;;;;;;4899753;29;20027;-87
2022/05/16 03:12:17;;;;;;;3.05;2.42;;;5.20;99.90;;;;;;4896926;29;20032;-80
2022/05/16 03:14:43;;;;;;;4.47;2.33;;;5.20;99.90;;;;;;4882306;29;20081;-90
2022/05/16 03:17:08;;;;;;;3.17;2.38;;;5.20;99.90;;;;;;4881001;29;20025;-81
2022/05/16 03:19:35;;;;;;;5.20;2.47;;;5.30;99.90;;;;;;4881908;29;20553;-88
2022/05/16 03:22:02;;;;;;;3.70;2.72;;;5.30;99.90;;;;;;4880653;29;20065;-81
2022/05/16 03:24:28;;;;;;;2.67;2.33;;;5.30;99.90;;;;;;4881968;29;20033;-80
2022/05/16 03:26:54;;;;;;;4.30;2.40;;;5.30;99.90;;;;;;4881735;29;20040;-80
2022/05/16 03:29:19;;;;;;;7.63;3.90;;;5.40;99.90;;;;;;4881945;29;20025;-81
2022/05/16 03:31:45;;;;;;;3.92;3.15;;;5.30;99.90;;;;;;4881809;29;20025;-80
2022/05/16 03:34:12;;;;;;;3.42;2.80;;;5.40;99.90;;;;;;4898832;29;20056;-82
2022/05/16 03:36:38;;;;;;;8.07;3.47;;;5.40;99.90;;;;;;4900519;29;20088;-80
2022/05/16 03:41:49;;;;;;;4.60;3.58;;;5.60;99.90;;;;;;4900813;29;20107;-95
2022/05/16 03:44:15;;;;;;;4.60;3.03;;;5.70;99.90;;;;;;4883713;29;20033;-82
2022/05/16 03:46:41;;;;;;;4.95;3.40;;;5.90;99.90;;;;;;4900661;29;20033;-81
2022/05/16 03:49:07;;;;;;;6.40;3.08;;;6.10;99.90;;;;;;4900175;29;20407;-95
2022/05/16 03:51:33;;;;;;;4.55;2.83;;;6.30;99.90;;;;;;4883854;29;20035;-94
2022/05/16 03:53:59;;;;;;;6.05;3.45;;;6.40;99.90;;;;;;4900213;29;20032;-94
2022/05/16 03:56:27;;;;;;;4.28;2.97;;;6.60;99.90;;;;;;4883536;29;20402;-95
2022/05/16 03:58:54;;;;;;;4.05;2.95;;;6.80;99.90;;;;;;4883682;29;20028;-81
2022/05/16 04:01:21;;;;;;;3.72;2.70;;;7.00;99.90;;;;;;4899713;29;20101;-94
2022/05/16 04:03:47;;;;;;;3.85;3.10;;;7.20;97.50;;;;;;4883604;29;20036;-94
2022/05/16 04:06:17;;;;;;;6.63;3.17;;;7.40;94.50;;;;;;4883819;29;20035;-93
2022/05/16 04:08:43;;;;;;;3.65;2.58;;;7.50;91.40;;;;;;4898863;29;20390;-80
2022/05/16 04:11:10;;;;;;;3.38;3.08;;;7.60;90.90;;;;;;4883337;29;20036;-81
2022/05/16 04:13:36;;;;;;;5.40;2.55;;;7.80;89.80;;;;;;4899752;29;20024;-81
2022/05/16 04:16:03;;;;;;;3.85;3.10;;;7.80;89.50;;;;;;4899664;29;20032;-95
2022/05/16 04:18:29;;;;;;;3.97;1.88;;;8.10;89.80;;;;;;4900064;29;20020;-81
2022/05/16 04:20:55;;;;;;;4.80;2.85;;;8.20;89.20;;;;;;4899319;29;20036;-81
2022/05/16 04:23:20;;;;;;;3.88;2.70;;;8.40;88.50;;;;;;4899853;29;20039;-91
2022/05/16 04:25:46;;;;;;;4.85;2.78;;;8.60;87.70;;;;;;4882551;29;20550;-80
2022/05/16 04:28:12;;;;;;;4.55;2.25;;;8.70;87.50;;;;;;4889588;29;20495;-81
2022/05/16 04:30:39;;;;;;;3.08;2.50;;;8.90;87.90;;;;;;4898520;29;20100;-81
2022/05/16 04:33:06;;;;;;;4.22;2.58;;;9.00;88.20;;;;;;4899590;29;20028;-95
2022/05/16 04:35:32;;;;;;;5.40;2.70;;;9.20;87.80;;;;;;4898056;29;20028;-82
2022/05/16 04:37:57;;;;;;;4.30;2.08;;;9.30;87.50;;;;;;4899475;29;20112;-92
2022/05/16 04:40:24;;;;;;;2.97;2.00;;;9.50;86.10;;;;;;4897995;29;20123;-81
2022/05/16 04:42:50;;;;;;;3.80;2.15;;;9.60;85.90;;;;;;4898118;29;20372;-95
2022/05/16 04:45:26;;;;;;;6.05;2.58;;;9.80;86.60;;;;;;4898419;29;20041;-82
2022/05/16 04:47:55;;;;;;;4.70;2.10;;;10.00;87.20;;;;;;4899357;29;20111;-81
2022/05/16 04:50:28;;;;;;;4.13;2.25;;;10.10;87.70;;;;;;4899358;29;20033;-95
2022/05/16 04:52:54;;;;;;;;;;;10.20;88.70;;;;;;4899094;29;20025;-95
2022/05/16 04:55:20;;;;;;;2.42;1.90;;;10.40;90.40;;;;;;4898221;29;19974;-95
2022/05/16 04:57:45;;;;;;;4.03;1.98;;;10.50;90.90;;;;;;4897842;29;20143;-81
2022/05/16 05:00:13;;;;;;;2.88;1.98;;;10.60;91.00;;;;;;4899147;29;20040;-88
2022/05/16 05:02:40;;;;;;;3.60;2.03;;;10.70;94.70;;;;;;4897619;29;20028;-95
2022/05/16 05:05:07;;;;;;;4.78;2.38;;;10.90;96.40;;;;;;4898116;29;20024;-81
2022/05/16 05:07:35;;;;;;;5.00;2.10;;;11.00;97.70;;;;;;4898690;29;20021;-95
2022/05/16 05:15:29;;;;;;;3.25;1.98;;;11.40;97.10;;;;;;4899071;29;20081;-81
2022/05/16 05:17:54;;;;;;;5.88;2.80;;;11.60;98.70;;;;;;4897770;29;20496;-85
2022/05/16 05:20:20;;;;;;;8.05;3.63;;;11.70;99.90;;;;;;4897188;29;20036;-81
2022/05/16 05:22:47;;;;;;;8.40;4.60;;;11.90;99.90;;;;;;4898767;29;20391;-96
2022/05/16 05:25:17;;;;;;;7.68;3.80;;;12.00;99.40;;;;;;4897384;29;20035;-81
2022/05/16 05:27:44;;;;;;;12.27;6.13;;;12.20;98.30;;;;;;4898146;29;20057;-82
2022/05/16 05:30:13;;;;;;;18.67;10.13;;;12.40;95.90;;;;;;4898510;29;20076;-96
2022/05/16 05:32:38;;;;;;;17.58;10.20;;;12.50;94.90;;;;;;4881864;29;20028;-96
2022/05/16 05:35:06;;;;;;;17.40;8.50;;;12.70;94.80;;;;;;4882084;29;20036;-96
2022/05/16 05:37:32;;;;;;;6.50;3.83;;;13.00;93.00;;;;;;4882561;29;20025;-82
2022/05/16 05:40:00;;;;;;;5.72;3.08;;;13.20;87.40;;;;;;4881201;29;20040;-81
2022/05/16 05:42:26;;;;;;;2.92;2.08;;;13.40;82.80;;;;;;4898353;29;20024;-81
2022/05/16 05:44:52;;;;;;;2.25;1.45;;;13.70;77.30;;;;;;4898539;29;20028;-82
2022/05/16 05:47:18;;;;;;;3.42;1.40;;;13.90;73.30;;;;;;4881787;29;20027;-82
2022/05/16 05:49:44;;;;;;;3.28;1.60;;;14.10;69.70;;;;;;4882214;29;20035;-82
2022/05/16 05:52:10;;;;;;;6.05;1.98;;;14.30;67.80;;;;;;4881929;29;20024;-96
2022/05/16 05:54:35;;;;;;;2.15;1.42;;;14.60;67.00;;;;;;4882536;29;20024;-82
2022/05/16 05:57:02;;;;;;;1.95;1.60;;;14.80;64.80;;;;;;4898158;29;20039;-82
2022/05/16 05:59:28;;;;;;;4.25;1.20;;;15.00;63.90;;;;;;4882086;29;20028;-82
2022/05/16 06:01:54;;;;;;;3.85;1.48;;;15.10;61.80;;;;;;4881239;29;20059;-82
2022/05/16 06:04:20;;;;;;;3.22;1.85;;;15.30;62.90;;;;;;4881603;29;20115;-83
2022/05/16 06:06:47;;;;;;;2.08;1.70;;;15.50;63.00;;;;;;4897886;29;20060;-96
2022/05/16 06:09:13;;;;;;;4.75;1.20;;;15.60;62.50;;;;;;4881893;29;20103;-82
2022/05/16 06:11:39;;;;;;;3.42;1.60;;;15.80;60.80;;;;;;4895577;29;20029;-96
2022/05/16 06:14:05;;;;;;;2.75;1.42;;;16.00;59.20;;;;;;4872714;29;20037;-81
2022/05/16 06:16:31;;;;;;;2.63;1.13;;;16.10;58.00;;;;;;4887787;29;20411;-81
2022/05/16 06:18:57;;;;;;;1.10;1.00;;;16.20;56.50;;;;;;4884337;29;20035;-81
2022/05/16 06:21:23;;;;;;;3.83;1.20;;;16.30;55.50;;;;;;4891430;29;20072;-96
2022/05/16 06:23:49;;;;;;;2.58;1.38;;;16.40;56.00;;;;;;4889036;29;20026;-89
2022/05/16 06:26:14;;;;;;;3.83;1.38;;;16.60;57.00;;;;;;4889449;29;20037;-82
2022/05/16 06:28:40;;;;;;;1.58;1.48;;;16.80;56.90;;;;;;4896781;29;20127;-82
2022/05/16 06:31:07;;;;;;;3.58;1.52;;;17.00;55.50;;;;;;4880217;29;20033;-87
2022/05/16 06:33:33;;;;;;;1.85;1.60;;;17.20;54.70;;;;;;4884181;29;20068;-96
2022/05/16 06:36:00;;;;;;;2.22;1.27;;;17.20;53.80;;;;;;4883473;29;20024;-96
2022/05/16 06:38:28;;;;;;;3.53;1.88;;;17.30;53.60;;;;;;4883756;29;20040;-82
2022/05/16 06:40:55;;;;;;;5.88;1.52;;;17.40;52.30;;;;;;4899943;29;20036;-89
2022/05/16 06:43:23;;;;;;;4.10;1.77;;;17.50;51.80;;;;;;4883356;29;20029;-83
2022/05/16 06:45:50;;;;;;;3.65;1.73;;;17.50;52.10;;;;;;4900087;29;20025;-87
2022/05/16 06:48:16;;;;;;;2.55;1.85;;;17.60;51.60;;;;;;4883086;29;20046;-82
2022/05/16 06:50:44;;;;;;;4.82;1.50;;;17.80;51.00;;;;;;4887765;29;20028;-95
2022/05/16 06:53:16;;;;;;;5.10;1.80;;;17.80;50.40;;;;;;4881892;29;20080;-82
2022/05/16 06:55:42;;;;;;;8.13;1.70;;;17.90;50.00;;;;;;4871023;29;20040;-82
2022/05/16 06:58:08;;;;;;;2.03;1.40;;;18.10;50.50;;;;;;4875906;29;20040;-96
2022/05/16 07:00:35;;;;;;;3.88;1.50;;;18.20;49.90;;;;;;4895549;29;20076;-83
2022/05/16 07:03:01;;;;;;;3.05;1.30;;;18.40;49.60;;;;;;4877747;29;20068;-96
2022/05/16 07:05:27;;;;;;;4.43;1.85;;;18.40;49.70;;;;;;4884328;29;20048;-95
2022/05/16 07:07:53;;;;;;;4.38;2.00;;;18.50;48.00;;;;;;4884365;29;20036;-83
2022/05/16 07:10:18;;;;;;;3.13;1.60;;;18.70;47.10;;;;;;4884374;29;20083;-96
2022/05/16 07:12:44;;;;;;;4.10;1.70;;;18.80;47.70;;;;;;4885157;29;20032;-83
2022/05/16 07:15:10;;;;;;;5.32;1.50;;;18.80;47.00;;;;;;4884002;29;20021;-95
2022/05/16 07:17:36;;;;;;;4.00;1.48;;;19.00;47.20;;;;;;4884048;29;20017;-92
2022/05/16 07:20:03;;;;;;;3.25;2.00;;;19.10;46.10;;;;;;4884001;29;20131;-95
2022/05/16 07:22:29;;;;;;;6.68;1.58;;;19.10;47.00;;;;;;4883970;29;20039;-96
2022/05/16 07:24:56;;;;;;;4.30;1.48;;;19.30;47.10;;;;;;4884537;29;20016;-83
2022/05/16 07:30:08;;;;;;;3.30;1.38;;;19.50;45.90;;;;;;4901362;29;20043;-95
2022/05/16 07:32:35;;;;;;;2.28;1.45;;;19.50;44.70;;;;;;4884196;29;20025;-82
2022/05/16 07:35:04;;;;;;;3.95;1.45;;;19.50;44.40;;;;;;4883912;29;20047;-82
2022/05/16 07:37:31;;;;;;;8.35;3.20;;;19.70;45.60;;;;;;4883898;29;20109;-95
2022/05/16 07:39:58;;;;;;;3.65;1.60;;;19.80;45.10;;;;;;4883747;29;20108;-82
2022/05/16 07:42:24;;;;;;;4.90;1.70;;;19.90;44.00;;;;;;4900281;29;20028;-82
2022/05/16 07:44:50;;;;;;;5.50;1.40;;;19.70;43.30;;;;;;4883314;29;20033;-90
2022/05/16 07:47:16;;;;;;;2.10;1.50;;;19.90;43.60;;;;;;4883684;29;20035;-95
2022/05/16 07:49:42;;;;;;;2.50;1.40;;;20.00;43.80;;;;;;4883715;29;20447;-95
2022/05/16 07:52:09;;;;;;;6.28;1.88;;;19.90;44.50;;;;;;4884400;29;20031;-82
2022/05/16 07:54:35;;;;;;;3.55;1.77;;;19.90;45.60;;;;;;4883623;29;20421;-82
2022/05/16 07:57:02;;;;;;;6.13;2.25;;;19.90;45.30;;;;;;4900109;29;20042;-94
2022/05/16 07:59:28;;;;;;;4.97;2.20;;;20.00;45.40;;;;;;4883076;29;20522;-82
2022/05/16 08:01:54;;;;;;;3.38;2.25;;;20.10;45.90;;;;;;4899977;29;20100;-82
2022/05/16 08:04:19;;;;;;;4.10;1.85;;;20.20;44.80;;;;;;4883024;29;20375;-85
2022/05/16 08:06:45;;;;;;;6.13;2.28;;;20.20;44.40;;;;;;4883114;29;20115;-93
2022/05/16 08:11:55;;;;;;;4.63;1.90;;;20.30;44.70;;;;;;4899800;29;20091;-90
2022/05/16 08:14:21;;;;;;;4.85;1.63;;;20.20;43.70;;;;;;4882953;29;20028;-83
2022/05/16 08:16:47;;;;;;;4.30;1.70;;;20.30;44.10;;;;;;4899740;29;20436;-82
2022/05/16 08:19:13;;;;;;;2.75;1.42;;;20.10;42.60;;;;;;4899219;29;20390;-83
2022/05/16 08:21:43;;;;;;;3.88;1.40;;;20.20;43.00;;;;;;4899487;29;20032;-93
2022/05/16 08:24:11;;;;;;;4.15;1.90;;;20.40;43.10;;;;;;4883077;29;20036;-93
2022/05/16 08:26:37;;;;;;;4.32;1.65;;;20.60;44.00;;;;;;4899291;29;20319;-82
2022/05/16 08:29:03;;;;;;;2.05;1.45;;;20.60;44.10;;;;;;4899104;29;20063;-94
2022/05/16 08:31:30;;;;;;;2.75;1.10;;;20.90;43.70;;;;;;4882820;29;20029;-94
2022/05/16 08:33:56;;;;;;;3.72;1.38;;;20.90;42.50;;;;;;4899492;29;20031;-81
2022/05/16 08:41:59;;;;;;;1.80;1.30;;;20.60;41.40;;;;;;4899364;29;20099;-82
2022/05/16 08:44:40;;;;;;;1.40;0.90;;;20.70;39.60;;;;;;4899044;29;20021;-83
2022/05/16 08:47:14;;;;;;;2.00;1.05;;;20.80;40.10;;;;;;4898965;29;20036;-93
2022/05/16 08:49:55;;;;;;;5.32;1.60;;;20.80;39.30;;;;;;4882119;29;20032;-82
2022/05/16 08:52:51;;;;;;;1.88;1.35;;;21.10;39.80;;;;;;4881803;29;20070;-92
2022/05/16 08:55:37;;;;;;;1.58;0.93;;;21.10;39.90;;;;;;4881311;29;20518;-93
2022/05/16 08:58:20;;;;;;;1.25;1.15;;;21.20;39.70;;;;;;4882177;29;20036;-91
2022/05/16 09:00:51;;;;;;;;;;;21.10;39.20;;;;;;4899248;29;20048;-84
2022/05/16 09:03:26;;;;;;;4.07;1.20;;;20.90;39.10;;;;;;4898737;29;19907;-91
2022/05/16 09:06:05;;;;;;;3.00;1.08;;;20.90;38.40;;;;;;4898783;29;20032;-82
2022/05/16 09:08:49;;;;;;;7.18;1.55;;;20.90;38.60;;;;;;4881855;29;20158;-82
2022/05/16 09:11:29;;;;;;;5.18;1.42;;;20.90;39.20;;;;;;4881684;29;20096;-82
2022/05/16 09:14:04;;;;;;;2.28;1.20;;;21.00;39.10;;;;;;4880712;29;20029;-83
2022/05/16 09:16:48;;;;;;;3.03;1.08;;;20.90;38.80;;;;;;4879756;29;20051;-83
2022/05/16 09:19:32;;;;;;;3.65;1.75;;;20.90;39.10;;;;;;4879970;29;20025;-90
2022/05/16 09:22:15;;;;;;;2.40;1.88;;;21.00;38.90;;;;;;4863214;29;20029;-89
2022/05/16 09:24:50;;;;;;;1.10;1.10;;;21.30;39.30;;;;;;4863140;29;20035;-90
2022/05/16 09:30:20;;;;;;;2.28;1.50;;;21.30;38.30;;;;;;4879708;29;20088;-90
2022/05/16 09:33:20;;;;;;;3.78;1.10;;;21.20;38.10;;;;;;4870864;29;20024;-92
2022/05/16 09:36:03;;;;;;;3.28;0.90;;;21.40;38.40;;;;;;4847953;29;20163;-91
2022/05/16 09:38:30;;;;;;;4.43;1.10;;;21.60;39.00;;;;;;4898067;29;20025;-92
2022/05/16 09:40:59;;;;;;;3.03;1.55;;;21.90;39.90;;;;;;4881159;29;20040;-92
2022/05/16 09:43:29;;;;;;;3.10;1.20;;;22.20;39.80;;;;;;4897075;29;20039;-91
2022/05/16 09:46:27;;;;;;;2.63;0.90;;;22.20;38.90;;;;;;4897585;29;20071;-83
2022/05/16 09:49:27;;;;;;;1.60;1.10;;;22.10;38.00;;;;;;4879518;29;20048;-87
2022/05/16 09:51:58;;;;;;;3.63;1.45;;;22.30;38.40;;;;;;4880957;29;20020;-83
2022/05/16 09:54:35;;;;;;;2.60;1.27;;;22.50;37.90;;;;;;4897872;29;20033;-82
2022/05/16 09:57:04;;;;;;;2.47;1.13;;;21.90;37.30;;;;;;4880986;29;20159;-83
2022/05/16 09:59:43;;;;;;;2.25;1.00;;;21.40;36.90;;;;;;4898066;29;20111;-91
2022/05/16 10:02:22;;;;;;;2.63;1.17;;;21.40;37.70;;;;;;4896720;29;20092;-82
2022/05/16 10:04:52;;;;;;;1.73;1.08;;;21.70;37.60;;;;;;4898164;29;20017;-83
2022/05/16 10:07:30;;;;;;;2.33;0.90;;;22.00;37.60;;;;;;4899845;29;20016;-92
2022/05/16 10:09:56;;;;;;;1.60;0.77;;;22.00;36.70;;;;;;4885092;29;20029;-91
2022/05/16 10:12:25;;;;;;;6.28;1.60;;;22.20;36.60;;;;;;4884635;29;20072;-83
2022/05/16 10:14:50;;;;;;;2.03;1.08;;;22.40;35.90;;;;;;4901537;29;20418;-82
2022/05/16 10:17:31;;;;;;;1.13;1.00;;;22.40;35.60;;;;;;4901484;29;20056;-83
2022/05/16 10:20:22;;;;;;;3.33;1.25;;;22.50;36.00;;;;;;4884683;29;20043;-91
2022/05/16 10:22:53;;;;;;;2.55;0.90;;;22.50;37.00;;;;;;4901726;29;20033;-83
2022/05/16 10:25:22;;;;;;;3.53;1.02;;;22.70;37.20;;;;;;4884295;29;20028;-84
2022/05/16 10:27:50;;;;;;;1.20;0.80;;;22.80;37.70;;;;;;4900601;29;20049;-83
2022/05/16 10:30:24;;;;;;;4.43;1.52;;;22.90;37.90;;;;;;4901094;29;20039;-91
2022/05/16 10:35:49;;;;;;;6.25;3.15;;;23.00;37.10;;;;;;4901317;29;20031;-83
2022/05/16 10:38:21;;;;;;;1.60;1.25;;;23.10;36.50;;;;;;4901361;29;20029;-89
2022/05/16 10:40:50;;;;;;;;;;;22.90;35.00;;;;;;4901570;29;20447;-82
2022/05/16 10:43:49;;;;;;;2.78;1.52;;;22.80;34.80;;;;;;4884480;29;19911;-83
2022/05/16 10:46:26;;;;;;;5.40;2.20;;;22.60;33.90;;;;;;4884016;29;20036;-90
2022/05/16 10:49:05;;;;;;;2.22;1.25;;;22.30;33.50;;;;;;4884206;29;20375;-82
2022/05/16 10:51:42;;;;;;;2.90;0.98;;;22.10;32.80;;;;;;4884215;29;20028;-87
2022/05/16 10:54:11;;;;;;;5.32;1.40;;;22.20;32.60;;;;;;4884062;29;20029;-90
2022/05/16 10:57:04;;;;;;;1.65;1.20;;;22.10;34.00;;;;;;4900967;29;20124;-83
2022/05/16 10:59:38;;;;;;;;;;;22.20;32.90;;;;;;4884418;29;20447;-82
2022/05/16 11:02:22;;;;;;;1.75;1.10;;;22.20;33.50;;;;;;4901006;29;19916;-90
2022/05/16 11:05:25;;;;;;;4.13;1.38;;;22.30;35.00;;;;;;4900637;29;20039;-90
2022/05/16 11:08:29;;;;;;;4.45;1.30;;;22.70;35.50;;;;;;4900278;29;20055;-82
2022/05/16 11:11:10;;;;;;;3.30;0.98;;;22.60;34.90;;;;;;4883748;29;20499;-91
2022/05/16 11:13:48;;;;;;;3.05;1.08;;;22.50;35.20;;;;;;4883799;29;20063;-83
2022/05/16 11:16:33;;;;;;;3.72;1.52;;;22.50;35.00;;;;;;4900581;29;20028;-83
2022/05/16 11:19:31;;;;;;;3.58;1.67;;;22.20;34.80;;;;;;4900092;29;20132;-90
2022/05/16 11:22:05;;;;;;;9.07;4.28;;;22.50;34.70;;;;;;4900391;29;20036;-90
2022/05/16 11:24:44;;;;;;;9.38;3.75;;;22.70;34.40;;;;;;4883798;29;20383;-92
2022/05/16 11:27:25;;;;;;;7.97;3.35;;;22.70;34.00;;;;;;4899903;29;20028;-82
2022/05/16 11:30:19;;;;;;;3.67;1.20;;;22.90;33.60;;;;;;4900404;29;20410;-92
2022/05/16 11:33:09;;;;;;;2.33;1.33;;;23.00;33.20;;;;;;4889388;29;20036;-83
2022/05/16 11:35:55;;;;;;;2.78;1.05;;;23.20;33.20;;;;;;4900129;29;20081;-90
2022/05/16 11:38:39;;;;;;;6.50;1.35;;;23.30;33.30;;;;;;4882942;29;20036;-90
2022/05/16 11:41:27;;;;;;;3.13;1.02;;;23.50;34.10;;;;;;4882951;29;20108;-87
2022/05/16 11:44:10;;;;;;;4.10;1.00;;;23.70;32.00;;;;;;4899903;29;20156;-83
2022/05/16 11:46:52;;;;;;;6.90;2.10;;;23.60;31.30;;;;;;4899870;29;20048;-89
2022/05/16 11:49:36;;;;;;;2.25;1.05;;;23.80;31.00;;;;;;4900030;29;20025;-82
2022/05/16 11:52:35;;;;;;;1.83;0.90;;;23.70;31.70;;;;;;4899601;29;20115;-90
2022/05/16 12:00:31;;;;;;;0.73;0.73;;;23.80;30.70;;;;;;4882906;29;20029;-91
2022/05/16 12:00:56;;;;;;;2.72;1.63;;;23.60;30.20;;;;;;4899841;29;20422;-81
2022/05/16 12:03:32;;;;;;;2.38;1.30;;;23.80;31.50;;;;;;4899301;29;20117;-84
2022/05/16 12:06:25;;;;;;;5.35;2.55;;;23.70;31.90;;;;;;4882474;29;20435;-90
2022/05/16 12:09:17;;;;;;;2.90;1.05;;;23.70;32.70;;;;;;4882140;29;20032;-83
2022/05/16 12:12:08;;;;;;;2.80;1.20;;;23.20;31.50;;;;;;4899372;29;20394;-91
2022/05/16 12:14:35;;;;;;;6.05;1.75;;;23.40;32.50;;;;;;4883016;29;20072;-90
2022/05/16 12:17:06;;;;;;;12.40;2.88;;;23.40;32.70;;;;;;4882269;29;20071;-90
2022/05/16 12:19:40;;;;;;;4.07;1.55;;;23.60;32.20;;;;;;4897573;29;20037;-83
2022/05/16 12:22:08;;;;;;;5.60;2.53;;;23.70;30.90;;;;;;4898051;29;20036;-89
2022/05/16 12:24:41;;;;;;;2.92;1.17;;;23.70;31.50;;;;;;4897677;29;20530;-89
2022/05/16 12:27:25;;;;;;;3.35;1.27;;;23.60;31.60;;;;;;4880349;29;20554;-90
2022/05/16 12:29:56;;;;;;;1.02;0.80;;;23.40;31.60;;;;;;4897111;29;20025;-91
2022/05/16 12:32:44;;;;;;;8.75;2.75;;;23.30;31.10;;;;;;4897756;29;20655;-90
2022/05/16 12:35:14;;;;;;;3.00;1.42;;;23.40;31.60;;;;;;4898944;29;20028;-91
2022/05/16 12:37:40;;;;;;;2.58;0.80;;;23.30;32.10;;;;;;4882314;29;20020;-91
2022/05/16 12:40:36;;;;;;;2.95;1.20;;;23.10;31.60;;;;;;4899047;29;20432;-91
2022/05/16 12:43:43;;;;;;;2.58;1.15;;;23.00;31.00;;;;;;4882271;29;20032;-90
2022/05/16 12:46:29;;;;;;;4.85;2.25;;;23.10;32.50;;;;;;4879731;29;20530;-83
2022/05/16 12:49:16;;;;;;;1.20;1.08;;;23.40;33.90;;;;;;4898878;29;20025;-90
2022/05/16 12:51:55;;;;;;;1.60;0.88;;;23.20;31.70;;;;;;4898519;29;20028;-82
2022/05/16 12:54:33;;;;;;;5.35;2.03;;;23.30;31.30;;;;;;4882206;29;20119;-82
2022/05/16 12:57:04;;;;;;;1.63;1.50;;;23.60;32.50;;;;;;4898818;29;20039;-90
2022/05/16 12:59:41;;;;;;;5.72;1.40;;;23.70;32.70;;;;;;4898731;29;20028;-82
2022/05/16 13:02:15;;;;;;;2.45;1.15;;;23.60;31.80;;;;;;4898709;29;20043;-82
2022/05/16 13:05:02;;;;;;;3.63;1.98;;;23.60;32.90;;;;;;4898552;29;20028;-91
2022/05/16 13:07:40;;;;;;;3.30;1.20;;;23.70;32.50;;;;;;4898516;29;20028;-83
2022/05/16 13:10:06;;;;;;;1.35;1.25;;;23.80;31.80;;;;;;4898483;29;20029;-82
2022/05/16 13:12:41;;;;;;;2.70;1.38;;;23.90;31.80;;;;;;4890340;29;20021;-88
2022/05/16 13:15:26;;;;;;;3.38;1.70;;;24.20;32.30;;;;;;4863092;29;20421;-82
2022/05/16 13:17:54;;;;;;;2.08;1.08;;;24.40;33.30;;;;;;4863104;29;20121;-82
2022/05/16 13:20:33;;;;;;;3.17;1.30;;;24.20;32.40;;;;;;4879840;29;20045;-83
2022/05/16 13:23:00;;;;;;;2.92;1.23;;;24.10;33.60;;;;;;4863380;29;20036;-82
2022/05/16 13:25:27;;;;;;;4.97;1.88;;;24.20;33.40;;;;;;4879497;29;20052;-82
2022/05/16 13:30:43;;;;;;;3.72;1.52;;;24.20;33.40;;;;;;4879693;29;20040;-82
2022/05/16 13:33:23;;;;;;;1.33;1.17;;;23.80;32.70;;;;;;4891217;29;20071;-88
2022/05/16 13:35:49;;;;;;;2.72;1.30;;;23.80;32.50;;;;;;4882014;29;20028;-89
2022/05/16 13:38:15;;;;;;;1.70;0.85;;;23.90;32.40;;;;;;4881514;29;20033;-83
2022/05/16 13:40:43;;;;;;;4.78;1.83;;;23.90;32.10;;;;;;4881289;29;20087;-82
2022/05/16 13:43:12;;;;;;;4.85;2.25;;;23.90;32.90;;;;;;4897942;29;20049;-90
2022/05/16 13:45:38;;;;;;;3.33;1.52;;;24.10;32.40;;;;;;4897787;29;20063;-89
2022/05/16 13:48:07;;;;;;;1.85;1.63;;;24.30;32.00;;;;;;4898860;29;20064;-87